createdAt,value
2023-02-16T00:00:24.702Z,23.88
2023-02-16T00:00:54.792Z,23.89
2023-02-16T00:01:24.865Z,23.91
2023-02-16T00:01:55.137Z,23.89
2023-02-16T00:02:25.084Z,23.94
2023-02-16T00:02:55.073Z,23.92
2023-02-16T00:03:25.180Z,23.89
2023-02-16T00:03:55.367Z,23.92
2023-02-16T00:04:25.306Z,23.94
2023-02-16T00:04:55.387Z,23.96
2023-02-16T00:05:25.504Z,23.95
2023-02-16T00:05:55.583Z,23.96
2023-02-16T00:06:25.701Z,23.95
2023-02-16T00:06:55.775Z,23.96
2023-02-16T00:07:25.843Z,23.95
2023-02-16T00:07:55.931Z,23.94
2023-02-16T00:08:26.022Z,23.95
2023-02-16T00:08:56.109Z,23.95
2023-02-16T00:09:26.184Z,23.95
2023-02-16T00:09:56.261Z,23.95
2023-02-16T00:10:26.380Z,23.96
2023-02-16T00:10:56.452Z,23.96
2023-02-16T00:11:26.540Z,23.96
2023-02-16T00:11:56.612Z,23.94
2023-02-16T00:12:26.690Z,23.95
2023-02-16T00:12:56.820Z,23.98
2023-02-16T00:13:26.796Z,23.99
2023-02-16T00:13:56.894Z,23.96
2023-02-16T00:14:26.978Z,23.99
2023-02-16T00:14:57.065Z,23.99
2023-02-16T00:15:27.213Z,23.98
2023-02-16T00:15:57.240Z,24.01
2023-02-16T00:16:27.190Z,23.99
2023-02-16T00:16:57.273Z,24.01
2023-02-16T00:17:27.366Z,24.01
2023-02-16T00:17:57.448Z,24.01
2023-02-16T00:18:27.529Z,24.01
2023-02-16T00:18:57.596Z,24.02
2023-02-16T00:19:27.695Z,23.99
2023-02-16T00:19:57.767Z,23.99
2023-02-16T00:20:27.842Z,23.98
2023-02-16T00:20:57.920Z,24.01
2023-02-16T00:21:28.019Z,23.98
2023-02-16T00:21:58.097Z,23.95
2023-02-16T00:22:28.185Z,23.96
2023-02-16T00:22:58.276Z,23.95
2023-02-16T00:23:28.353Z,23.96
2023-02-16T00:23:58.442Z,23.95
2023-02-16T00:24:28.522Z,23.94
2023-02-16T00:24:58.599Z,23.95
2023-02-16T00:25:28.675Z,23.94
2023-02-16T00:25:58.787Z,23.94
2023-02-16T00:26:28.851Z,23.96
2023-02-16T00:26:58.927Z,23.94
2023-02-16T00:27:29.002Z,23.95
2023-02-16T00:27:59.092Z,23.92
2023-02-16T00:28:29.181Z,23.94
2023-02-16T00:28:59.341Z,23.91
2023-02-16T00:29:29.317Z,23.94
2023-02-16T00:29:59.470Z,23.92
2023-02-16T00:30:29.447Z,23.91
2023-02-16T00:30:59.606Z,23.92
2023-02-16T00:31:29.702Z,23.91
2023-02-16T00:31:59.794Z,23.94
2023-02-16T00:32:29.845Z,23.89
2023-02-16T00:32:59.819Z,23.94
2023-02-16T00:33:29.894Z,23.91
2023-02-16T00:33:59.976Z,23.91
2023-02-16T00:34:30.055Z,23.88
2023-02-16T00:35:00.162Z,23.88
2023-02-16T00:35:30.244Z,23.88
2023-02-16T00:36:00.327Z,23.87
2023-02-16T00:36:30.412Z,23.85
2023-02-16T00:37:00.502Z,23.88
2023-02-16T00:37:30.584Z,23.87
2023-02-16T00:38:00.659Z,23.84
2023-02-16T00:38:30.741Z,23.83
2023-02-16T00:39:00.821Z,23.81
2023-02-16T00:39:30.905Z,23.78
2023-02-16T00:40:00.979Z,23.78
2023-02-16T00:40:31.086Z,23.78
2023-02-16T00:41:01.557Z,23.77
2023-02-16T00:41:31.191Z,23.80
2023-02-16T00:42:01.122Z,23.81
2023-02-16T00:42:31.152Z,23.78
2023-02-16T00:43:01.197Z,23.83
2023-02-16T00:43:31.246Z,23.80
2023-02-16T00:44:01.292Z,23.80
2023-02-16T00:44:31.327Z,23.81
2023-02-16T00:45:01.358Z,23.81
2023-02-16T00:45:31.424Z,23.83
2023-02-16T00:46:01.485Z,23.83
2023-02-16T00:46:31.654Z,23.84
2023-02-16T00:47:01.597Z,23.84
2023-02-16T00:47:31.634Z,23.83
2023-02-16T00:48:01.670Z,23.81
2023-02-16T00:48:31.720Z,23.85
2023-02-16T00:49:01.757Z,23.85
2023-02-16T00:49:31.792Z,23.84
2023-02-16T00:50:01.828Z,23.83
2023-02-16T00:50:31.908Z,23.84
2023-02-16T00:51:02.199Z,23.83
2023-02-16T00:51:32.022Z,23.87
2023-02-16T00:52:02.067Z,23.87
2023-02-16T00:52:32.151Z,23.88
2023-02-16T00:53:02.246Z,23.88
2023-02-16T00:53:32.328Z,23.88
2023-02-16T00:54:02.399Z,23.88
2023-02-16T00:54:32.486Z,23.89
2023-02-16T00:55:02.576Z,23.91
2023-02-16T00:55:32.706Z,23.91
2023-02-16T00:56:02.670Z,23.91
2023-02-16T00:56:32.763Z,23.91
2023-02-16T00:57:02.975Z,23.94
2023-02-16T00:57:32.909Z,23.94
2023-02-16T00:58:02.986Z,23.95
2023-02-16T00:58:33.093Z,23.92
2023-02-16T00:59:03.176Z,23.92
2023-02-16T00:59:33.270Z,23.95
2023-02-16T01:00:03.351Z,23.95
2023-02-16T01:00:33.454Z,23.96
2023-02-16T01:01:03.728Z,23.98
2023-02-16T01:01:33.494Z,23.96
2023-02-16T01:02:03.505Z,23.98
2023-02-16T01:02:33.571Z,24.01
2023-02-16T01:03:03.653Z,24.02
2023-02-16T01:03:33.747Z,23.98
2023-02-16T01:04:03.870Z,23.99
2023-02-16T01:04:33.989Z,24.01
2023-02-16T01:05:03.968Z,24.04
2023-02-16T01:05:34.085Z,24.01
2023-02-16T01:06:04.167Z,24.02
2023-02-16T01:06:34.271Z,23.99
2023-02-16T01:07:04.356Z,24.02
2023-02-16T01:07:34.435Z,24.01
2023-02-16T01:08:04.512Z,24.04
2023-02-16T01:08:34.588Z,24.02
2023-02-16T01:09:04.666Z,24.04
2023-02-16T01:09:34.753Z,24.05
2023-02-16T01:10:04.854Z,24.04
2023-02-16T01:10:34.954Z,24.05
2023-02-16T01:11:05.581Z,24.04
2023-02-16T01:11:35.119Z,24.05
2023-02-16T01:12:05.109Z,24.04
2023-02-16T01:12:35.234Z,24.02
2023-02-16T01:13:05.281Z,24.02
2023-02-16T01:13:35.366Z,24.04
2023-02-16T01:14:05.458Z,24.04
2023-02-16T01:14:35.529Z,24.04
2023-02-16T01:15:05.604Z,24.01
2023-02-16T01:15:35.758Z,24.01
2023-02-16T01:16:05.779Z,24.02
2023-02-16T01:16:35.860Z,24.02
2023-02-16T01:17:05.954Z,23.99
2023-02-16T01:17:36.038Z,23.99
2023-02-16T01:18:06.146Z,24.02
2023-02-16T01:18:36.218Z,24.02
2023-02-16T01:19:06.297Z,23.98
2023-02-16T01:19:36.382Z,23.99
2023-02-16T01:20:06.458Z,23.99
2023-02-16T01:20:36.555Z,24.01
2023-02-16T01:21:06.634Z,23.98
2023-02-16T01:21:36.706Z,23.98
2023-02-16T01:22:06.791Z,24.01
2023-02-16T01:22:36.885Z,24.01
2023-02-16T01:23:06.965Z,23.99
2023-02-16T01:23:37.047Z,24.01
2023-02-16T01:24:07.141Z,24.01
2023-02-16T01:24:37.208Z,24.01
2023-02-16T01:25:07.305Z,24.01
2023-02-16T01:25:37.382Z,24.01
2023-02-16T01:26:07.496Z,24.02
2023-02-16T01:26:37.547Z,24.01
2023-02-16T01:27:07.633Z,24.04
2023-02-16T01:27:37.719Z,23.99
2023-02-16T01:28:07.837Z,23.98
2023-02-16T01:28:37.896Z,23.96
2023-02-16T01:29:07.981Z,23.95
2023-02-16T01:29:38.089Z,23.98
2023-02-16T01:30:08.207Z,23.98
2023-02-16T01:30:38.181Z,23.96
2023-02-16T01:31:08.422Z,23.95
2023-02-16T01:31:38.505Z,23.98
2023-02-16T01:32:08.563Z,23.92
2023-02-16T01:32:38.440Z,23.95
2023-02-16T01:33:08.519Z,23.94
2023-02-16T01:33:38.610Z,23.92
2023-02-16T01:34:08.689Z,23.91
2023-02-16T01:34:38.793Z,23.92
2023-02-16T01:35:08.866Z,23.89
2023-02-16T01:35:38.965Z,23.89
2023-02-16T01:36:09.050Z,23.89
2023-02-16T01:36:39.135Z,23.91
2023-02-16T01:37:09.205Z,23.89
2023-02-16T01:37:39.297Z,23.88
2023-02-16T01:38:09.391Z,23.88
2023-02-16T01:38:39.467Z,23.87
2023-02-16T01:39:09.545Z,23.88
2023-02-16T01:39:39.641Z,23.87
2023-02-16T01:40:09.728Z,23.84
2023-02-16T01:40:39.840Z,23.84
2023-02-16T01:41:09.923Z,23.85
2023-02-16T01:41:40.009Z,23.84
2023-02-16T01:42:10.093Z,23.83
2023-02-16T01:42:40.121Z,23.81
2023-02-16T01:43:10.181Z,23.81
2023-02-16T01:43:40.210Z,23.81
2023-02-16T01:44:10.248Z,23.83
2023-02-16T01:44:40.297Z,23.80
2023-02-16T01:45:10.340Z,23.78
2023-02-16T01:45:40.377Z,23.78
2023-02-16T01:46:10.436Z,23.81
2023-02-16T01:46:40.500Z,23.78
2023-02-16T01:47:10.553Z,23.77
2023-02-16T01:47:40.589Z,23.80
2023-02-16T01:48:10.628Z,23.78
2023-02-16T01:48:40.673Z,23.80
2023-02-16T01:49:10.717Z,23.78
2023-02-16T01:49:40.754Z,23.80
2023-02-16T01:50:10.788Z,23.81
2023-02-16T01:50:40.845Z,23.78
2023-02-16T01:51:10.890Z,23.81
2023-02-16T01:51:40.930Z,23.80
2023-02-16T01:52:10.996Z,23.78
2023-02-16T01:52:41.085Z,23.78
2023-02-16T01:53:11.165Z,23.80
2023-02-16T01:53:41.253Z,23.80
2023-02-16T01:54:11.334Z,23.80
2023-02-16T01:54:41.410Z,23.81
2023-02-16T01:55:11.506Z,23.84
2023-02-16T01:55:41.616Z,23.81
2023-02-16T01:56:11.687Z,23.83
2023-02-16T01:56:41.777Z,23.80
2023-02-16T01:57:11.853Z,23.81
2023-02-16T01:57:41.963Z,23.83
2023-02-16T01:58:12.018Z,23.81
2023-02-16T01:58:42.041Z,23.84
2023-02-16T01:59:12.104Z,23.84
2023-02-16T01:59:42.188Z,23.84
2023-02-16T02:00:12.272Z,23.84
2023-02-16T02:00:42.371Z,23.84
2023-02-16T02:01:12.461Z,23.87
2023-02-16T02:01:42.626Z,23.87
2023-02-16T02:02:12.589Z,23.85
2023-02-16T02:02:42.768Z,23.88
2023-02-16T02:03:12.730Z,23.88
2023-02-16T02:03:42.815Z,23.87
2023-02-16T02:04:12.900Z,23.87
2023-02-16T02:04:42.989Z,23.88
2023-02-16T02:05:13.056Z,23.91
2023-02-16T02:05:43.179Z,23.91
2023-02-16T02:06:13.240Z,23.89
2023-02-16T02:06:43.320Z,23.94
2023-02-16T02:07:13.408Z,23.91
2023-02-16T02:07:43.488Z,23.91
2023-02-16T02:08:13.572Z,23.91
2023-02-16T02:08:43.657Z,23.92
2023-02-16T02:09:13.738Z,23.89
2023-02-16T02:09:43.821Z,23.89
2023-02-16T02:10:13.922Z,23.91
2023-02-16T02:10:43.994Z,23.94
2023-02-16T02:11:14.088Z,23.94
2023-02-16T02:11:44.157Z,23.94
2023-02-16T02:12:14.314Z,23.94
2023-02-16T02:12:44.299Z,23.96
2023-02-16T02:13:14.246Z,23.95
2023-02-16T02:13:44.350Z,23.95
2023-02-16T02:14:14.409Z,23.94
2023-02-16T02:14:44.502Z,23.92
2023-02-16T02:15:14.581Z,23.95
2023-02-16T02:15:44.705Z,23.96
2023-02-16T02:16:14.853Z,23.94
2023-02-16T02:16:44.792Z,23.96
2023-02-16T02:17:14.880Z,23.96
2023-02-16T02:17:44.961Z,23.95
2023-02-16T02:18:15.037Z,23.96
2023-02-16T02:18:45.118Z,23.94
2023-02-16T02:19:15.234Z,23.95
2023-02-16T02:19:45.301Z,23.96
2023-02-16T02:20:15.388Z,23.94
2023-02-16T02:20:45.486Z,23.96
2023-02-16T02:21:15.570Z,23.96
2023-02-16T02:21:45.657Z,23.96
2023-02-16T02:22:15.736Z,24.01
2023-02-16T02:22:45.843Z,23.99
2023-02-16T02:23:15.988Z,23.98
2023-02-16T02:23:45.933Z,23.96
2023-02-16T02:24:16.625Z,23.98
2023-02-16T02:24:46.045Z,23.98
2023-02-16T02:25:16.124Z,23.96
2023-02-16T02:25:46.221Z,23.96
2023-02-16T02:26:16.316Z,23.95
2023-02-16T02:26:46.379Z,23.96
2023-02-16T02:27:16.461Z,23.96
2023-02-16T02:27:46.547Z,23.94
2023-02-16T02:28:16.631Z,23.98
2023-02-16T02:28:46.738Z,23.95
2023-02-16T02:29:16.791Z,23.94
2023-02-16T02:29:46.907Z,23.92
2023-02-16T02:30:17.103Z,23.92
2023-02-16T02:30:47.114Z,23.89
2023-02-16T02:31:17.255Z,23.89
2023-02-16T02:31:47.351Z,23.87
2023-02-16T02:32:17.313Z,23.85
2023-02-16T02:32:47.286Z,23.87
2023-02-16T02:33:17.352Z,23.87
2023-02-16T02:33:47.434Z,23.84
2023-02-16T02:34:17.527Z,23.87
2023-02-16T02:34:47.548Z,23.84
2023-02-16T02:35:17.645Z,23.85
2023-02-16T02:35:47.716Z,23.84
2023-02-16T02:36:17.806Z,23.81
2023-02-16T02:36:47.890Z,23.80
2023-02-16T02:37:17.976Z,23.81
2023-02-16T02:37:48.050Z,23.78
2023-02-16T02:38:18.180Z,23.78
2023-02-16T02:38:48.266Z,23.77
2023-02-16T02:39:18.350Z,23.76
2023-02-16T02:39:48.432Z,23.74
2023-02-16T02:40:18.517Z,23.74
2023-02-16T02:40:48.629Z,23.74
2023-02-16T02:41:18.735Z,23.74
2023-02-16T02:41:48.814Z,23.74
2023-02-16T02:42:18.859Z,23.74
2023-02-16T02:42:48.906Z,23.71
2023-02-16T02:43:18.970Z,23.71
2023-02-16T02:43:49.057Z,23.70
2023-02-16T02:44:19.059Z,23.71
2023-02-16T02:44:49.104Z,23.71
2023-02-16T02:45:19.156Z,23.74
2023-02-16T02:45:49.194Z,23.71
2023-02-16T02:46:19.288Z,23.70
2023-02-16T02:46:49.333Z,23.70
2023-02-16T02:47:19.363Z,23.73
2023-02-16T02:47:49.412Z,23.73
2023-02-16T02:48:19.443Z,23.73
2023-02-16T02:48:49.494Z,23.70
2023-02-16T02:49:19.520Z,23.73
2023-02-16T02:49:49.564Z,23.74
2023-02-16T02:50:19.599Z,23.76
2023-02-16T02:50:49.648Z,23.74
2023-02-16T02:51:19.717Z,23.77
2023-02-16T02:51:49.743Z,23.78
2023-02-16T02:52:19.819Z,23.76
2023-02-16T02:52:49.908Z,23.76
2023-02-16T02:53:19.990Z,23.73
2023-02-16T02:53:50.076Z,23.76
2023-02-16T02:54:20.156Z,23.77
2023-02-16T02:54:50.233Z,23.80
2023-02-16T02:55:20.314Z,23.80
2023-02-16T02:55:50.403Z,23.80
2023-02-16T02:56:20.483Z,23.80
2023-02-16T02:56:50.575Z,23.80
2023-02-16T02:57:20.655Z,23.78
2023-02-16T02:57:50.677Z,23.81
2023-02-16T02:58:20.776Z,23.83
2023-02-16T02:58:50.769Z,23.78
2023-02-16T02:59:20.886Z,23.78
2023-02-16T02:59:50.989Z,23.81
2023-02-16T03:00:20.953Z,23.83
2023-02-16T03:00:51.120Z,23.84
2023-02-16T03:01:21.163Z,23.84
2023-02-16T03:01:51.156Z,23.84
2023-02-16T03:02:21.314Z,23.84
2023-02-16T03:02:51.314Z,23.85
2023-02-16T03:03:21.398Z,23.85
2023-02-16T03:03:51.476Z,23.85
2023-02-16T03:04:21.557Z,23.85
2023-02-16T03:04:51.642Z,23.89
2023-02-16T03:05:21.747Z,23.89
2023-02-16T03:05:51.832Z,23.85
2023-02-16T03:06:21.919Z,23.88
2023-02-16T03:06:52.009Z,23.87
2023-02-16T03:07:22.104Z,23.87
2023-02-16T03:07:52.189Z,23.85
2023-02-16T03:08:22.259Z,23.88
2023-02-16T03:08:52.345Z,23.87
2023-02-16T03:09:22.433Z,23.89
2023-02-16T03:09:52.514Z,23.89
2023-02-16T03:10:22.591Z,23.89
2023-02-16T03:10:52.677Z,23.91
2023-02-16T03:11:22.756Z,23.92
2023-02-16T03:11:52.843Z,23.95
2023-02-16T03:12:22.925Z,23.94
2023-02-16T03:12:53.012Z,23.95
2023-02-16T03:13:23.108Z,23.94
2023-02-16T03:13:53.197Z,23.94
2023-02-16T03:14:23.300Z,23.94
2023-02-16T03:14:53.362Z,23.94
2023-02-16T03:15:23.442Z,23.96
2023-02-16T03:15:53.539Z,23.94
2023-02-16T03:16:23.661Z,23.95
2023-02-16T03:16:53.648Z,23.92
2023-02-16T03:17:23.730Z,23.95
2023-02-16T03:17:53.820Z,23.96
2023-02-16T03:18:23.908Z,23.94
2023-02-16T03:18:53.992Z,23.92
2023-02-16T03:19:24.076Z,23.96
2023-02-16T03:19:54.152Z,23.95
2023-02-16T03:20:24.252Z,23.95
2023-02-16T03:20:54.339Z,23.94
2023-02-16T03:21:24.416Z,23.96
2023-02-16T03:21:54.490Z,23.95
2023-02-16T03:22:24.574Z,23.99
2023-02-16T03:22:54.652Z,23.96
2023-02-16T03:23:24.747Z,23.98
2023-02-16T03:23:54.826Z,23.96
2023-02-16T03:24:24.906Z,23.95
2023-02-16T03:24:54.997Z,23.98
2023-02-16T03:25:25.074Z,23.96
2023-02-16T03:25:55.167Z,23.96
2023-02-16T03:26:25.246Z,23.98
2023-02-16T03:26:55.329Z,23.98
2023-02-16T03:27:25.418Z,23.98
2023-02-16T03:27:55.512Z,23.98
2023-02-16T03:28:25.521Z,23.99
2023-02-16T03:28:55.593Z,23.96
2023-02-16T03:29:25.713Z,23.99
2023-02-16T03:29:55.799Z,23.98
2023-02-16T03:30:25.957Z,23.96
2023-02-16T03:30:56.030Z,23.99
2023-02-16T03:31:26.148Z,23.98
2023-02-16T03:31:56.092Z,23.98
2023-02-16T03:32:26.087Z,23.99
2023-02-16T03:32:56.160Z,23.96
2023-02-16T03:33:26.268Z,23.99
2023-02-16T03:33:56.351Z,24.02
2023-02-16T03:34:26.439Z,23.99
2023-02-16T03:34:56.538Z,23.98
2023-02-16T03:35:26.606Z,23.99
2023-02-16T03:35:56.710Z,23.98
2023-02-16T03:36:26.833Z,23.96
2023-02-16T03:36:56.807Z,23.92
2023-02-16T03:37:26.890Z,23.94
2023-02-16T03:37:56.977Z,23.94
2023-02-16T03:38:26.965Z,23.92
2023-02-16T03:38:57.050Z,23.92
2023-02-16T03:39:27.163Z,23.91
2023-02-16T03:39:57.225Z,23.91
2023-02-16T03:40:27.311Z,23.89
2023-02-16T03:40:57.406Z,23.91
2023-02-16T03:41:27.506Z,23.89
2023-02-16T03:41:57.557Z,23.89
2023-02-16T03:42:27.640Z,23.88
2023-02-16T03:42:57.671Z,23.88
2023-02-16T03:43:27.717Z,23.84
2023-02-16T03:43:57.785Z,23.87
2023-02-16T03:44:27.849Z,23.84
2023-02-16T03:44:57.872Z,23.84
2023-02-16T03:45:27.983Z,23.87
2023-02-16T03:45:58.019Z,23.85
2023-02-16T03:46:27.952Z,23.85
2023-02-16T03:46:57.984Z,23.88
2023-02-16T03:47:28.025Z,23.87
2023-02-16T03:47:58.055Z,23.87
2023-02-16T03:48:28.109Z,23.87
2023-02-16T03:48:58.145Z,23.84
2023-02-16T03:49:28.186Z,23.84
2023-02-16T03:49:58.223Z,23.80
2023-02-16T03:50:28.269Z,23.81
2023-02-16T03:50:58.314Z,23.78
2023-02-16T03:51:28.349Z,23.77
2023-02-16T03:51:58.391Z,23.77
2023-02-16T03:52:28.478Z,23.76
2023-02-16T03:52:58.567Z,23.76
2023-02-16T03:53:28.647Z,23.76
2023-02-16T03:53:58.725Z,23.76
2023-02-16T03:54:28.805Z,23.74
2023-02-16T03:54:58.888Z,23.76
2023-02-16T03:55:28.982Z,23.73
2023-02-16T03:55:59.065Z,23.73
2023-02-16T03:56:29.152Z,23.73
2023-02-16T03:56:59.225Z,23.70
2023-02-16T03:57:29.306Z,23.71
2023-02-16T03:57:59.391Z,23.71
2023-02-16T03:58:29.479Z,23.71
2023-02-16T03:58:59.572Z,23.71
2023-02-16T03:59:29.729Z,23.71
2023-02-16T03:59:59.668Z,23.70
2023-02-16T04:00:29.751Z,23.73
2023-02-16T04:00:59.836Z,23.70
2023-02-16T04:01:29.930Z,23.71
2023-02-16T04:02:00.095Z,23.71
2023-02-16T04:02:30.177Z,23.70
2023-02-16T04:03:00.166Z,23.71
2023-02-16T04:03:30.255Z,23.70
2023-02-16T04:04:00.422Z,23.71
2023-02-16T04:04:30.534Z,23.71
2023-02-16T04:05:00.541Z,23.68
2023-02-16T04:05:30.650Z,23.68
2023-02-16T04:06:00.729Z,23.68
2023-02-16T04:06:30.832Z,23.68
2023-02-16T04:07:00.899Z,23.68
2023-02-16T04:07:31.892Z,23.70
2023-02-16T04:08:01.084Z,23.68
2023-02-16T04:08:31.161Z,23.67
2023-02-16T04:09:01.241Z,23.67
2023-02-16T04:09:31.333Z,23.65
2023-02-16T04:10:01.435Z,23.64
2023-02-16T04:10:31.519Z,23.64
2023-02-16T04:11:02.010Z,23.65
2023-02-16T04:11:31.714Z,23.62
2023-02-16T04:12:01.802Z,23.64
2023-02-16T04:12:31.891Z,23.65
2023-02-16T04:13:02.011Z,23.64
2023-02-16T04:13:31.992Z,23.62
2023-02-16T04:14:02.055Z,23.65
2023-02-16T04:14:32.184Z,23.70
2023-02-16T04:15:02.225Z,23.65
2023-02-16T04:15:32.344Z,23.68
2023-02-16T04:16:02.324Z,23.67
2023-02-16T04:16:32.482Z,23.70
2023-02-16T04:17:02.459Z,23.67
2023-02-16T04:17:32.553Z,23.68
2023-02-16T04:18:02.652Z,23.68
2023-02-16T04:18:32.727Z,23.68
2023-02-16T04:19:02.807Z,23.68
2023-02-16T04:19:32.884Z,23.67
2023-02-16T04:20:03.019Z,23.68
2023-02-16T04:20:33.111Z,23.67
2023-02-16T04:21:03.567Z,23.65
2023-02-16T04:21:33.296Z,23.65
2023-02-16T04:22:03.368Z,23.65
2023-02-16T04:22:33.453Z,23.65
2023-02-16T04:23:03.546Z,23.64
2023-02-16T04:23:33.636Z,23.62
2023-02-16T04:24:03.716Z,23.62
2023-02-16T04:24:33.790Z,23.64
2023-02-16T04:25:03.883Z,23.64
2023-02-16T04:25:33.996Z,23.62
2023-02-16T04:26:04.105Z,23.62
2023-02-16T04:26:34.188Z,23.61
2023-02-16T04:27:04.325Z,23.61
2023-02-16T04:27:34.272Z,23.60
2023-02-16T04:28:04.358Z,23.62
2023-02-16T04:28:34.432Z,23.60
2023-02-16T04:29:04.522Z,23.58
2023-02-16T04:29:34.642Z,23.61
2023-02-16T04:30:04.728Z,23.60
2023-02-16T04:30:34.969Z,23.61
2023-02-16T04:31:05.162Z,23.65
2023-02-16T04:31:34.974Z,23.61
2023-02-16T04:32:04.940Z,23.62
2023-02-16T04:32:34.830Z,23.60
2023-02-16T04:33:04.920Z,23.60
2023-02-16T04:33:35.009Z,23.64
2023-02-16T04:34:05.097Z,23.62
2023-02-16T04:34:35.184Z,23.61
2023-02-16T04:35:05.274Z,23.61
2023-02-16T04:35:35.376Z,23.61
2023-02-16T04:36:05.468Z,23.62
2023-02-16T04:36:35.537Z,23.62
2023-02-16T04:37:05.625Z,23.65
2023-02-16T04:37:35.717Z,23.64
2023-02-16T04:38:05.801Z,23.67
2023-02-16T04:38:35.890Z,23.65
2023-02-16T04:39:05.971Z,23.64
2023-02-16T04:39:36.113Z,23.67
2023-02-16T04:40:06.087Z,23.62
2023-02-16T04:40:36.205Z,23.62
2023-02-16T04:41:06.338Z,23.61
2023-02-16T04:41:36.205Z,23.60
2023-02-16T04:42:06.268Z,23.57
2023-02-16T04:42:36.295Z,23.56
2023-02-16T04:43:06.344Z,23.57
2023-02-16T04:43:36.370Z,23.54
2023-02-16T04:44:06.418Z,23.54
2023-02-16T04:44:36.445Z,23.54
2023-02-16T04:45:06.516Z,23.54
2023-02-16T04:45:36.551Z,23.54
2023-02-16T04:46:06.623Z,23.54
2023-02-16T04:46:36.649Z,23.53
2023-02-16T04:47:06.675Z,23.53
2023-02-16T04:47:36.729Z,23.51
2023-02-16T04:48:06.763Z,23.50
2023-02-16T04:48:36.810Z,23.51
2023-02-16T04:49:06.847Z,23.50
2023-02-16T04:49:36.875Z,23.51
2023-02-16T04:50:06.928Z,23.53
2023-02-16T04:50:36.985Z,23.53
2023-02-16T04:51:07.052Z,23.53
2023-02-16T04:51:37.059Z,23.51
2023-02-16T04:52:07.132Z,23.54
2023-02-16T04:52:37.240Z,23.53
2023-02-16T04:53:07.319Z,23.51
2023-02-16T04:53:37.400Z,23.50
2023-02-16T04:54:07.489Z,23.51
2023-02-16T04:54:37.568Z,23.49
2023-02-16T04:55:07.655Z,23.51
2023-02-16T04:55:37.736Z,23.49
2023-02-16T04:56:07.813Z,23.47
2023-02-16T04:56:37.898Z,23.47
2023-02-16T04:57:07.994Z,23.46
2023-02-16T04:57:38.085Z,23.46
2023-02-16T04:58:08.162Z,23.47
2023-02-16T04:58:38.241Z,23.50
2023-02-16T04:59:08.329Z,23.49
2023-02-16T04:59:38.353Z,23.49
2023-02-16T05:00:08.457Z,23.50
2023-02-16T05:00:38.524Z,23.49
2023-02-16T05:01:08.749Z,23.50
2023-02-16T05:01:38.722Z,23.50
2023-02-16T05:02:08.836Z,23.49
2023-02-16T05:02:38.910Z,23.44
2023-02-16T05:03:08.988Z,23.47
2023-02-16T05:03:39.082Z,23.47
2023-02-16T05:04:09.298Z,23.50
2023-02-16T05:04:39.256Z,23.46
2023-02-16T05:05:09.250Z,23.43
2023-02-16T05:05:39.326Z,23.44
2023-02-16T05:06:09.412Z,23.44
2023-02-16T05:06:39.527Z,23.44
2023-02-16T05:07:09.585Z,23.43
2023-02-16T05:07:39.663Z,23.43
2023-02-16T05:08:09.757Z,23.40
2023-02-16T05:08:39.841Z,23.39
2023-02-16T05:09:09.927Z,23.40
2023-02-16T05:09:40.013Z,23.37
2023-02-16T05:10:10.087Z,23.37
2023-02-16T05:10:40.176Z,23.39
2023-02-16T05:11:10.261Z,23.37
2023-02-16T05:11:40.347Z,23.39
2023-02-16T05:12:10.438Z,23.37
2023-02-16T05:12:40.522Z,23.30
2023-02-16T05:13:10.612Z,23.37
2023-02-16T05:13:42.680Z,23.40
2023-02-16T05:14:10.768Z,23.42
2023-02-16T05:14:40.850Z,23.42
2023-02-16T05:15:10.990Z,23.44
2023-02-16T05:15:40.998Z,23.44
2023-02-16T05:16:11.041Z,23.49
2023-02-16T05:16:41.016Z,23.47
2023-02-16T05:17:11.018Z,23.50
2023-02-16T05:17:41.105Z,23.47
2023-02-16T05:18:11.190Z,23.50
2023-02-16T05:18:41.270Z,23.49
2023-02-16T05:19:11.386Z,23.51
2023-02-16T05:19:41.488Z,23.51
2023-02-16T05:20:11.561Z,23.51
2023-02-16T05:20:41.668Z,23.53
2023-02-16T05:21:11.749Z,23.51
2023-02-16T05:21:41.831Z,23.53
2023-02-16T05:22:11.918Z,23.49
2023-02-16T05:22:42.006Z,23.49
2023-02-16T05:23:12.101Z,23.42
2023-02-16T05:23:42.174Z,23.40
2023-02-16T05:24:12.267Z,23.34
2023-02-16T05:24:42.354Z,23.36
2023-02-16T05:25:12.438Z,23.33
2023-02-16T05:25:42.518Z,23.33
2023-02-16T05:26:12.603Z,23.30
2023-02-16T05:26:42.685Z,23.27
2023-02-16T05:27:12.765Z,23.26
2023-02-16T05:27:42.852Z,23.27
2023-02-16T05:28:12.969Z,23.26
2023-02-16T05:28:43.039Z,23.25
2023-02-16T05:29:13.129Z,23.27
2023-02-16T05:29:43.216Z,23.29
2023-02-16T05:30:13.403Z,23.30
2023-02-16T05:30:43.498Z,23.27
2023-02-16T05:31:13.558Z,23.27
2023-02-16T05:31:43.721Z,23.30
2023-02-16T05:32:13.664Z,23.32
2023-02-16T05:32:43.661Z,23.32
2023-02-16T05:33:13.734Z,23.32
2023-02-16T05:33:43.838Z,23.36
2023-02-16T05:34:13.920Z,23.36
2023-02-16T05:34:43.990Z,23.37
2023-02-16T05:35:14.076Z,23.39
2023-02-16T05:35:44.159Z,23.40
2023-02-16T05:36:14.244Z,23.43
2023-02-16T05:36:44.324Z,23.43
2023-02-16T05:37:14.405Z,23.44
2023-02-16T05:37:44.498Z,23.46
2023-02-16T05:38:14.537Z,23.49
2023-02-16T05:38:44.619Z,23.47
2023-02-16T05:39:14.712Z,23.49
2023-02-16T05:39:44.799Z,23.49
2023-02-16T05:40:14.879Z,23.51
2023-02-16T05:40:44.967Z,23.57
2023-02-16T05:41:15.049Z,23.53
2023-02-16T05:41:45.148Z,23.57
2023-02-16T05:42:18.184Z,23.57
2023-02-16T05:42:45.269Z,23.58
2023-02-16T05:43:15.323Z,23.57
2023-02-16T05:43:46.630Z,23.58
2023-02-16T05:44:15.411Z,23.57
2023-02-16T05:44:45.448Z,23.58
2023-02-16T05:45:15.490Z,23.60
2023-02-16T05:45:45.542Z,23.57
2023-02-16T05:46:15.629Z,23.60
2023-02-16T05:46:45.571Z,23.57
2023-02-16T05:47:15.612Z,23.58
2023-02-16T05:47:47.294Z,23.57
2023-02-16T05:48:15.723Z,23.58
2023-02-16T05:48:45.765Z,23.60
2023-02-16T05:49:15.795Z,23.58
2023-02-16T05:49:45.841Z,23.62
2023-02-16T05:50:15.871Z,23.61
2023-02-16T05:50:45.913Z,23.57
2023-02-16T05:51:15.947Z,23.57
2023-02-16T05:51:45.997Z,23.60
2023-02-16T05:52:16.077Z,23.61
2023-02-16T05:52:46.165Z,23.64
2023-02-16T05:53:16.251Z,23.67
2023-02-16T05:53:46.330Z,23.73
2023-02-16T05:54:16.408Z,23.76
2023-02-16T05:54:46.506Z,23.83
2023-02-16T05:55:16.580Z,23.88
2023-02-16T05:55:46.676Z,23.89
2023-02-16T05:56:16.761Z,23.92
2023-02-16T05:56:46.856Z,23.96
2023-02-16T05:57:16.935Z,23.98
2023-02-16T05:57:47.019Z,24.01
2023-02-16T05:58:17.101Z,23.98
2023-02-16T05:58:47.189Z,24.01
2023-02-16T05:59:17.268Z,24.01
2023-02-16T05:59:47.360Z,24.05
2023-02-16T06:00:17.441Z,24.01
2023-02-16T06:00:47.526Z,23.99
2023-02-16T06:01:17.638Z,24.01
2023-02-16T06:01:51.220Z,24.04
2023-02-16T06:02:17.721Z,24.04
2023-02-16T06:02:47.886Z,24.01
2023-02-16T06:03:17.879Z,24.04
2023-02-16T06:03:48.020Z,23.99
2023-02-16T06:04:17.994Z,23.99
2023-02-16T06:04:48.074Z,23.99
2023-02-16T06:05:18.157Z,23.98
2023-02-16T06:05:48.237Z,23.96
2023-02-16T06:06:18.328Z,23.98
2023-02-16T06:06:48.486Z,23.96
2023-02-16T06:07:18.439Z,23.98
2023-02-16T06:07:48.569Z,23.95
2023-02-16T06:08:18.623Z,23.94
2023-02-16T06:08:48.720Z,23.95
2023-02-16T06:09:18.794Z,23.92
2023-02-16T06:09:48.868Z,23.92
2023-02-16T06:10:18.952Z,23.92
2023-02-16T06:10:49.039Z,23.92
2023-02-16T06:11:19.129Z,23.94
2023-02-16T06:11:49.207Z,23.91
2023-02-16T06:12:19.318Z,23.89
2023-02-16T06:12:49.411Z,23.91
2023-02-16T06:13:19.499Z,23.89
2023-02-16T06:13:49.586Z,23.89
2023-02-16T06:14:19.673Z,23.85
2023-02-16T06:14:49.757Z,23.88
2023-02-16T06:15:19.840Z,23.85
2023-02-16T06:15:49.938Z,23.87
2023-02-16T06:16:20.066Z,23.84
2023-02-16T06:16:50.066Z,23.88
2023-02-16T06:17:20.069Z,23.88
2023-02-16T06:17:50.156Z,23.88
2023-02-16T06:18:20.241Z,23.88
2023-02-16T06:18:50.323Z,23.89
2023-02-16T06:19:20.404Z,23.91
2023-02-16T06:19:50.482Z,23.91
2023-02-16T06:20:20.580Z,23.89
2023-02-16T06:20:50.660Z,23.91
2023-02-16T06:21:20.746Z,23.89
2023-02-16T06:21:50.835Z,23.92
2023-02-16T06:22:20.910Z,23.92
2023-02-16T06:22:51.004Z,23.96
2023-02-16T06:23:21.092Z,23.92
2023-02-16T06:23:51.167Z,23.92
2023-02-16T06:24:21.295Z,23.91
2023-02-16T06:24:51.361Z,23.94
2023-02-16T06:25:21.446Z,23.96
2023-02-16T06:25:51.522Z,23.92
2023-02-16T06:26:21.609Z,23.94
2023-02-16T06:26:51.693Z,23.96
2023-02-16T06:27:21.779Z,23.95